sensor_id;sensor_type;location;lat;lon;timestamp;P1;durP1;ratioP1;P2;durP2;ratioP2
65764;SDS011;52915;53.718;19.946;2022-12-18T00:04:24;71.60;;;29.90;;
65764;SDS011;52915;53.718;19.946;2022-12-18T00:09:28;30.60;;;15.00;;
65764;SDS011;52915;53.718;19.946;2022-12-18T00:14:42;48.20;;;18.10;;
65764;SDS011;52915;53.718;19.946;2022-12-18T00:19:46;49.60;;;19.70;;
65764;SDS011;52915;53.718;19.946;2022-12-18T00:24:49;43.70;;;16.30;;
65764;SDS011;52915;53.718;19.946;2022-12-18T00:29:53;27.20;;;10.80;;
65764;SDS011;52915;53.718;19.946;2022-12-18T00:34:57;28.70;;;10.70;;
65764;SDS011;52915;53.718;19.946;2022-12-18T00:40:01;21.60;;;10.20;;
65764;SDS011;52915;53.718;19.946;2022-12-18T00:45:06;101.60;;;36.90;;
65764;SDS011;52915;53.718;19.946;2022-12-18T00:50:15;57.60;;;21.40;;
65764;SDS011;52915;53.718;19.946;2022-12-18T00:55:19;40.50;;;18.60;;
65764;SDS011;52915;53.718;19.946;2022-12-18T01:00:23;16.70;;;8.10;;
65764;SDS011;52915;53.718;19.946;2022-12-18T01:05:27;18.60;;;10.90;;
65764;SDS011;52915;53.718;19.946;2022-12-18T01:10:31;21.30;;;9.50;;
65764;SDS011;52915;53.718;19.946;2022-12-18T01:15:35;42.40;;;15.40;;
65764;SDS011;52915;53.718;19.946;2022-12-18T01:20:39;37.20;;;13.30;;
65764;SDS011;52915;53.718;19.946;2022-12-18T01:25:43;10.60;;;5.80;;
65764;SDS011;52915;53.718;19.946;2022-12-18T01:30:47;35.20;;;14.60;;
65764;SDS011;52915;53.718;19.946;2022-12-18T01:35:50;19.70;;;8.70;;
65764;SDS011;52915;53.718;19.946;2022-12-18T01:40:58;53.80;;;17.80;;
65764;SDS011;52915;53.718;19.946;2022-12-18T01:46:03;24.60;;;10.80;;
65764;SDS011;52915;53.718;19.946;2022-12-18T01:51:09;15.00;;;7.20;;
65764;SDS011;52915;53.718;19.946;2022-12-18T02:01:29;20.00;;;10.50;;
65764;SDS011;52915;53.718;19.946;2022-12-18T02:06:39;46.70;;;17.10;;
65764;SDS011;52915;53.718;19.946;2022-12-18T02:11:53;24.70;;;12.60;;
65764;SDS011;52915;53.718;19.946;2022-12-18T02:17:09;12.90;;;5.80;;
65764;SDS011;52915;53.718;19.946;2022-12-18T02:28:01;40.30;;;13.50;;
65764;SDS011;52915;53.718;19.946;2022-12-18T02:33:11;7.20;;;6.10;;
65764;SDS011;52915;53.718;19.946;2022-12-18T02:38:16;47.90;;;14.60;;
65764;SDS011;52915;53.718;19.946;2022-12-18T02:43:21;46.00;;;18.50;;
65764;SDS011;52915;53.718;19.946;2022-12-18T02:48:33;23.10;;;10.10;;
65764;SDS011;52915;53.718;19.946;2022-12-18T02:53:53;24.40;;;7.80;;
65764;SDS011;52915;53.718;19.946;2022-12-18T02:59:09;31.30;;;12.10;;
65764;SDS011;52915;53.718;19.946;2022-12-18T03:04:36;69.70;;;31.50;;
65764;SDS011;52915;53.718;19.946;2022-12-18T03:09:58;22.60;;;11.70;;
65764;SDS011;52915;53.718;19.946;2022-12-18T03:15:17;34.80;;;14.70;;
65764;SDS011;52915;53.718;19.946;2022-12-18T03:20:31;59.90;;;26.50;;
65764;SDS011;52915;53.718;19.946;2022-12-18T03:25:40;65.80;;;27.10;;
65764;SDS011;52915;53.718;19.946;2022-12-18T03:30:50;63.50;;;24.10;;
65764;SDS011;52915;53.718;19.946;2022-12-18T03:35:59;24.10;;;10.90;;
65764;SDS011;52915;53.718;19.946;2022-12-18T03:46:30;15.20;;;7.30;;
65764;SDS011;52915;53.718;19.946;2022-12-18T03:52:06;54.50;;;28.20;;
65764;SDS011;52915;53.718;19.946;2022-12-18T03:57:19;20.10;;;7.30;;
65764;SDS011;52915;53.718;19.946;2022-12-18T04:02:25;19.50;;;7.30;;
65764;SDS011;52915;53.718;19.946;2022-12-18T04:07:29;33.80;;;13.50;;
65764;SDS011;52915;53.718;19.946;2022-12-18T04:12:34;58.70;;;20.60;;
65764;SDS011;52915;53.718;19.946;2022-12-18T04:17:39;33.50;;;14.30;;
65764;SDS011;52915;53.718;19.946;2022-12-18T04:22:52;35.30;;;17.50;;
65764;SDS011;52915;53.718;19.946;2022-12-18T04:27:56;13.20;;;8.60;;
65764;SDS011;52915;53.718;19.946;2022-12-18T04:33:00;28.50;;;12.40;;
65764;SDS011;52915;53.718;19.946;2022-12-18T04:38:06;17.90;;;10.50;;
65764;SDS011;52915;53.718;19.946;2022-12-18T04:43:11;53.70;;;16.90;;
65764;SDS011;52915;53.718;19.946;2022-12-18T04:48:15;191.00;;;73.20;;
65764;SDS011;52915;53.718;19.946;2022-12-18T04:53:19;97.60;;;35.00;;
65764;SDS011;52915;53.718;19.946;2022-12-18T04:58:23;100.70;;;36.90;;
65764;SDS011;52915;53.718;19.946;2022-12-18T05:03:27;18.00;;;8.80;;
65764;SDS011;52915;53.718;19.946;2022-12-18T05:08:31;21.30;;;8.80;;
65764;SDS011;52915;53.718;19.946;2022-12-18T05:13:36;20.80;;;9.10;;
65764;SDS011;52915;53.718;19.946;2022-12-18T05:18:42;50.30;;;17.50;;
65764;SDS011;52915;53.718;19.946;2022-12-18T05:23:45;46.20;;;18.50;;
65764;SDS011;52915;53.718;19.946;2022-12-18T05:28:49;41.70;;;16.20;;
65764;SDS011;52915;53.718;19.946;2022-12-18T05:33:53;28.10;;;12.50;;
65764;SDS011;52915;53.718;19.946;2022-12-18T05:38:57;100.80;;;29.90;;
65764;SDS011;52915;53.718;19.946;2022-12-18T05:44:01;99.20;;;30.50;;
65764;SDS011;52915;53.718;19.946;2022-12-18T05:49:05;90.40;;;29.50;;
65764;SDS011;52915;53.718;19.946;2022-12-18T05:54:09;39.10;;;15.00;;
65764;SDS011;52915;53.718;19.946;2022-12-18T05:59:13;36.90;;;13.40;;
65764;SDS011;52915;53.718;19.946;2022-12-18T06:04:16;58.60;;;21.20;;
65764;SDS011;52915;53.718;19.946;2022-12-18T06:14:54;61.60;;;22.70;;
65764;SDS011;52915;53.718;19.946;2022-12-18T06:19:59;23.80;;;10.20;;
65764;SDS011;52915;53.718;19.946;2022-12-18T06:25:04;66.60;;;18.30;;
65764;SDS011;52915;53.718;19.946;2022-12-18T06:30:10;20.40;;;8.30;;
65764;SDS011;52915;53.718;19.946;2022-12-18T06:35:16;46.20;;;15.70;;
65764;SDS011;52915;53.718;19.946;2022-12-18T06:40:21;100.90;;;33.10;;
65764;SDS011;52915;53.718;19.946;2022-12-18T06:45:26;51.70;;;19.10;;
65764;SDS011;52915;53.718;19.946;2022-12-18T06:50:30;60.80;;;21.70;;
65764;SDS011;52915;53.718;19.946;2022-12-18T06:55:34;48.10;;;19.10;;
65764;SDS011;52915;53.718;19.946;2022-12-18T07:00:38;26.60;;;11.40;;
65764;SDS011;52915;53.718;19.946;2022-12-18T07:05:42;46.60;;;17.80;;
65764;SDS011;52915;53.718;19.946;2022-12-18T07:10:46;82.90;;;29.90;;
65764;SDS011;52915;53.718;19.946;2022-12-18T07:16:13;46.50;;;14.50;;
65764;SDS011;52915;53.718;19.946;2022-12-18T07:21:27;60.90;;;22.10;;
65764;SDS011;52915;53.718;19.946;2022-12-18T07:26:31;59.50;;;22.30;;
65764;SDS011;52915;53.718;19.946;2022-12-18T07:31:35;84.20;;;28.20;;
65764;SDS011;52915;53.718;19.946;2022-12-18T07:36:39;69.20;;;24.10;;
65764;SDS011;52915;53.718;19.946;2022-12-18T07:41:43;63.00;;;23.90;;
65764;SDS011;52915;53.718;19.946;2022-12-18T07:47:07;49.30;;;19.80;;
65764;SDS011;52915;53.718;19.946;2022-12-18T07:52:14;112.40;;;36.40;;
65764;SDS011;52915;53.718;19.946;2022-12-18T07:57:23;207.40;;;84.70;;
65764;SDS011;52915;53.718;19.946;2022-12-18T08:02:47;106.60;;;43.20;;
65764;SDS011;52915;53.718;19.946;2022-12-18T08:07:52;112.40;;;41.80;;
65764;SDS011;52915;53.718;19.946;2022-12-18T08:12:56;74.60;;;31.80;;
65764;SDS011;52915;53.718;19.946;2022-12-18T08:18:07;108.60;;;41.50;;
65764;SDS011;52915;53.718;19.946;2022-12-18T08:23:16;114.30;;;43.70;;
65764;SDS011;52915;53.718;19.946;2022-12-18T08:28:20;116.90;;;46.00;;
65764;SDS011;52915;53.718;19.946;2022-12-18T08:33:25;139.10;;;49.50;;
65764;SDS011;52915;53.718;19.946;2022-12-18T08:38:29;202.60;;;74.70;;
65764;SDS011;52915;53.718;19.946;2022-12-18T08:43:35;199.80;;;63.30;;
65764;SDS011;52915;53.718;19.946;2022-12-18T08:48:57;183.90;;;66.70;;
65764;SDS011;52915;53.718;19.946;2022-12-18T08:54:03;165.00;;;63.10;;
65764;SDS011;52915;53.718;19.946;2022-12-18T08:59:08;193.30;;;72.10;;
65764;SDS011;52915;53.718;19.946;2022-12-18T09:04:21;184.30;;;65.80;;
65764;SDS011;52915;53.718;19.946;2022-12-18T09:09:26;138.30;;;51.20;;
65764;SDS011;52915;53.718;19.946;2022-12-18T09:14:30;110.70;;;38.10;;
65764;SDS011;52915;53.718;19.946;2022-12-18T09:19:34;106.50;;;42.30;;
65764;SDS011;52915;53.718;19.946;2022-12-18T09:24:38;146.50;;;50.70;;
65764;SDS011;52915;53.718;19.946;2022-12-18T09:29:42;147.60;;;53.30;;
65764;SDS011;52915;53.718;19.946;2022-12-18T09:34:46;117.00;;;44.80;;
65764;SDS011;52915;53.718;19.946;2022-12-18T09:39:57;151.50;;;52.70;;
65764;SDS011;52915;53.718;19.946;2022-12-18T09:45:03;149.80;;;52.50;;
65764;SDS011;52915;53.718;19.946;2022-12-18T09:50:35;190.30;;;48.70;;
65764;SDS011;52915;53.718;19.946;2022-12-18T09:55:45;183.60;;;50.50;;
65764;SDS011;52915;53.718;19.946;2022-12-18T10:00:52;221.20;;;69.80;;
65764;SDS011;52915;53.718;19.946;2022-12-18T10:12:04;279.30;;;89.20;;
65764;SDS011;52915;53.718;19.946;2022-12-18T10:27:45;178.00;;;79.30;;
65764;SDS011;52915;53.718;19.946;2022-12-18T10:32:49;144.40;;;67.50;;
65764;SDS011;52915;53.718;19.946;2022-12-18T10:43:27;123.80;;;57.80;;
65764;SDS011;52915;53.718;19.946;2022-12-18T10:48:55;203.30;;;86.00;;
65764;SDS011;52915;53.718;19.946;2022-12-18T10:54:27;130.70;;;61.60;;
65764;SDS011;52915;53.718;19.946;2022-12-18T10:59:53;96.10;;;47.50;;
65764;SDS011;52915;53.718;19.946;2022-12-18T11:04:59;104.60;;;42.70;;
65764;SDS011;52915;53.718;19.946;2022-12-18T11:10:05;113.50;;;57.80;;
65764;SDS011;52915;53.718;19.946;2022-12-18T11:15:27;114.40;;;55.50;;
65764;SDS011;52915;53.718;19.946;2022-12-18T11:20:37;103.00;;;51.70;;
65764;SDS011;52915;53.718;19.946;2022-12-18T11:25:52;116.80;;;64.20;;
65764;SDS011;52915;53.718;19.946;2022-12-18T11:36:31;125.00;;;64.90;;
65764;SDS011;52915;53.718;19.946;2022-12-18T11:41:48;138.60;;;65.90;;
65764;SDS011;52915;53.718;19.946;2022-12-18T11:47:16;82.80;;;44.00;;
65764;SDS011;52915;53.718;19.946;2022-12-18T11:52:42;92.00;;;47.80;;
65764;SDS011;52915;53.718;19.946;2022-12-18T12:21:04;91.50;;;51.30;;
65764;SDS011;52915;53.718;19.946;2022-12-18T12:32:07;67.30;;;36.70;;
65764;SDS011;52915;53.718;19.946;2022-12-18T12:37:47;86.60;;;45.70;;
65764;SDS011;52915;53.718;19.946;2022-12-18T12:43:03;135.50;;;78.60;;
65764;SDS011;52915;53.718;19.946;2022-12-18T12:48:32;129.90;;;66.40;;
65764;SDS011;52915;53.718;19.946;2022-12-18T12:53:39;170.50;;;76.90;;
65764;SDS011;52915;53.718;19.946;2022-12-18T12:59:13;115.90;;;47.00;;
65764;SDS011;52915;53.718;19.946;2022-12-18T13:10:34;91.50;;;41.80;;
65764;SDS011;52915;53.718;19.946;2022-12-18T13:15:44;104.50;;;48.80;;
65764;SDS011;52915;53.718;19.946;2022-12-18T13:21:02;39.00;;;17.40;;
65764;SDS011;52915;53.718;19.946;2022-12-18T13:36:45;145.30;;;58.00;;
65764;SDS011;52915;53.718;19.946;2022-12-18T13:47:36;136.30;;;60.90;;
65764;SDS011;52915;53.718;19.946;2022-12-18T13:52:42;121.40;;;51.50;;
65764;SDS011;52915;53.718;19.946;2022-12-18T13:57:47;94.90;;;40.10;;
65764;SDS011;52915;53.718;19.946;2022-12-18T14:02:51;98.60;;;39.00;;
65764;SDS011;52915;53.718;19.946;2022-12-18T14:08:01;105.50;;;40.10;;
65764;SDS011;52915;53.718;19.946;2022-12-18T14:13:24;83.80;;;32.70;;
65764;SDS011;52915;53.718;19.946;2022-12-18T14:18:50;72.60;;;27.70;;
65764;SDS011;52915;53.718;19.946;2022-12-18T14:24:21;66.00;;;24.40;;
65764;SDS011;52915;53.718;19.946;2022-12-18T14:29:30;73.20;;;25.60;;
65764;SDS011;52915;53.718;19.946;2022-12-18T14:34:34;128.70;;;41.80;;
65764;SDS011;52915;53.718;19.946;2022-12-18T14:39:39;115.70;;;38.50;;
65764;SDS011;52915;53.718;19.946;2022-12-18T14:44:43;117.30;;;33.40;;
65764;SDS011;52915;53.718;19.946;2022-12-18T14:50:13;99.80;;;34.20;;
65764;SDS011;52915;53.718;19.946;2022-12-18T14:55:20;138.00;;;40.80;;
65764;SDS011;52915;53.718;19.946;2022-12-18T15:00:26;71.70;;;25.80;;
65764;SDS011;52915;53.718;19.946;2022-12-18T15:05:32;133.60;;;48.00;;
65764;SDS011;52915;53.718;19.946;2022-12-18T15:10:46;92.90;;;32.50;;
65764;SDS011;52915;53.718;19.946;2022-12-18T15:15:52;177.20;;;59.60;;
65764;SDS011;52915;53.718;19.946;2022-12-18T15:21:08;118.50;;;40.00;;
65764;SDS011;52915;53.718;19.946;2022-12-18T15:26:16;108.90;;;32.10;;
65764;SDS011;52915;53.718;19.946;2022-12-18T15:31:29;75.00;;;27.10;;
65764;SDS011;52915;53.718;19.946;2022-12-18T15:36:44;75.20;;;26.50;;
65764;SDS011;52915;53.718;19.946;2022-12-18T15:42:26;87.10;;;32.50;;
65764;SDS011;52915;53.718;19.946;2022-12-18T15:48:40;61.70;;;25.40;;
65764;SDS011;52915;53.718;19.946;2022-12-18T15:53:55;38.70;;;15.90;;
65764;SDS011;52915;53.718;19.946;2022-12-18T16:04:10;93.60;;;32.80;;
65764;SDS011;52915;53.718;19.946;2022-12-18T16:09:27;98.00;;;35.40;;
65764;SDS011;52915;53.718;19.946;2022-12-18T16:14:45;138.70;;;55.90;;
65764;SDS011;52915;53.718;19.946;2022-12-18T16:19:49;92.40;;;31.30;;
65764;SDS011;52915;53.718;19.946;2022-12-18T16:24:56;84.50;;;22.60;;
65764;SDS011;52915;53.718;19.946;2022-12-18T16:30:28;61.30;;;16.90;;
65764;SDS011;52915;53.718;19.946;2022-12-18T16:35:50;80.40;;;25.10;;
65764;SDS011;52915;53.718;19.946;2022-12-18T16:41:45;50.30;;;16.90;;
65764;SDS011;52915;53.718;19.946;2022-12-18T16:46:49;64.90;;;21.60;;
65764;SDS011;52915;53.718;19.946;2022-12-18T16:51:56;59.10;;;21.60;;
65764;SDS011;52915;53.718;19.946;2022-12-18T16:57:22;94.80;;;32.10;;
65764;SDS011;52915;53.718;19.946;2022-12-18T17:02:27;82.70;;;30.00;;
65764;SDS011;52915;53.718;19.946;2022-12-18T17:07:31;92.50;;;33.40;;
65764;SDS011;52915;53.718;19.946;2022-12-18T17:12:36;99.50;;;40.70;;
65764;SDS011;52915;53.718;19.946;2022-12-18T17:17:43;100.20;;;33.70;;
65764;SDS011;52915;53.718;19.946;2022-12-18T17:22:48;119.00;;;45.90;;
65764;SDS011;52915;53.718;19.946;2022-12-18T17:27:51;94.20;;;35.90;;
65764;SDS011;52915;53.718;19.946;2022-12-18T17:32:55;118.20;;;44.60;;
65764;SDS011;52915;53.718;19.946;2022-12-18T17:37:59;90.20;;;33.70;;
65764;SDS011;52915;53.718;19.946;2022-12-18T17:43:03;64.80;;;26.30;;
65764;SDS011;52915;53.718;19.946;2022-12-18T17:48:08;57.10;;;23.50;;
65764;SDS011;52915;53.718;19.946;2022-12-18T17:53:13;53.60;;;21.10;;
65764;SDS011;52915;53.718;19.946;2022-12-18T17:58:17;69.90;;;26.80;;
65764;SDS011;52915;53.718;19.946;2022-12-18T18:03:22;99.60;;;30.80;;
65764;SDS011;52915;53.718;19.946;2022-12-18T18:08:28;132.80;;;43.20;;
65764;SDS011;52915;53.718;19.946;2022-12-18T18:13:35;115.10;;;35.80;;
65764;SDS011;52915;53.718;19.946;2022-12-18T18:19:04;73.40;;;26.90;;
65764;SDS011;52915;53.718;19.946;2022-12-18T18:24:13;100.50;;;31.40;;
65764;SDS011;52915;53.718;19.946;2022-12-18T18:29:21;76.30;;;26.80;;
65764;SDS011;52915;53.718;19.946;2022-12-18T18:34:32;146.80;;;48.10;;
65764;SDS011;52915;53.718;19.946;2022-12-18T18:39:39;121.80;;;38.10;;
65764;SDS011;52915;53.718;19.946;2022-12-18T18:44:43;47.00;;;21.20;;
65764;SDS011;52915;53.718;19.946;2022-12-18T18:49:51;58.50;;;17.40;;
65764;SDS011;52915;53.718;19.946;2022-12-18T18:54:56;98.90;;;29.20;;
65764;SDS011;52915;53.718;19.946;2022-12-18T19:00:16;103.10;;;36.30;;
65764;SDS011;52915;53.718;19.946;2022-12-18T19:05:21;55.70;;;18.90;;
65764;SDS011;52915;53.718;19.946;2022-12-18T19:10:26;103.50;;;39.20;;
65764;SDS011;52915;53.718;19.946;2022-12-18T19:15:32;62.30;;;22.90;;
65764;SDS011;52915;53.718;19.946;2022-12-18T19:20:36;76.00;;;25.50;;
65764;SDS011;52915;53.718;19.946;2022-12-18T19:25:41;106.20;;;36.90;;
65764;SDS011;52915;53.718;19.946;2022-12-18T19:31:05;84.00;;;31.70;;
65764;SDS011;52915;53.718;19.946;2022-12-18T19:41:27;191.70;;;68.70;;
65764;SDS011;52915;53.718;19.946;2022-12-18T19:46:35;97.40;;;33.80;;
65764;SDS011;52915;53.718;19.946;2022-12-18T19:51:44;139.50;;;50.20;;
65764;SDS011;52915;53.718;19.946;2022-12-18T19:56:48;94.60;;;31.20;;
65764;SDS011;52915;53.718;19.946;2022-12-18T20:01:52;79.80;;;26.70;;
65764;SDS011;52915;53.718;19.946;2022-12-18T20:06:57;82.90;;;36.10;;
65764;SDS011;52915;53.718;19.946;2022-12-18T20:12:02;107.10;;;38.70;;
65764;SDS011;52915;53.718;19.946;2022-12-18T20:17:06;43.20;;;19.40;;
65764;SDS011;52915;53.718;19.946;2022-12-18T20:22:11;23.20;;;12.10;;
65764;SDS011;52915;53.718;19.946;2022-12-18T20:27:16;51.70;;;25.10;;
65764;SDS011;52915;53.718;19.946;2022-12-18T20:32:22;41.30;;;16.30;;
65764;SDS011;52915;53.718;19.946;2022-12-18T20:37:26;61.40;;;22.20;;
65764;SDS011;52915;53.718;19.946;2022-12-18T20:42:30;67.70;;;25.50;;
65764;SDS011;52915;53.718;19.946;2022-12-18T20:47:37;75.20;;;27.90;;
65764;SDS011;52915;53.718;19.946;2022-12-18T20:52:42;115.10;;;36.10;;
65764;SDS011;52915;53.718;19.946;2022-12-18T20:57:47;122.90;;;45.10;;
65764;SDS011;52915;53.718;19.946;2022-12-18T21:02:52;228.50;;;46.80;;
65764;SDS011;52915;53.718;19.946;2022-12-18T21:07:56;153.40;;;46.90;;
65764;SDS011;52915;53.718;19.946;2022-12-18T21:13:00;51.70;;;21.40;;
65764;SDS011;52915;53.718;19.946;2022-12-18T21:18:08;13.60;;;10.60;;
65764;SDS011;52915;53.718;19.946;2022-12-18T21:23:12;223.50;;;64.00;;
65764;SDS011;52915;53.718;19.946;2022-12-18T21:28:19;202.90;;;57.20;;
65764;SDS011;52915;53.718;19.946;2022-12-18T21:33:23;86.40;;;28.90;;
65764;SDS011;52915;53.718;19.946;2022-12-18T21:38:26;113.40;;;30.20;;
65764;SDS011;52915;53.718;19.946;2022-12-18T21:43:30;91.60;;;31.00;;
65764;SDS011;52915;53.718;19.946;2022-12-18T21:49:05;163.00;;;47.60;;
65764;SDS011;52915;53.718;19.946;2022-12-18T21:54:11;189.50;;;57.30;;
65764;SDS011;52915;53.718;19.946;2022-12-18T21:59:26;245.50;;;69.10;;
65764;SDS011;52915;53.718;19.946;2022-12-18T22:04:30;143.70;;;35.70;;
65764;SDS011;52915;53.718;19.946;2022-12-18T22:09:34;127.00;;;39.40;;
65764;SDS011;52915;53.718;19.946;2022-12-18T22:14:38;64.90;;;24.80;;
65764;SDS011;52915;53.718;19.946;2022-12-18T22:19:42;42.80;;;16.70;;
65764;SDS011;52915;53.718;19.946;2022-12-18T22:24:45;125.40;;;40.20;;
65764;SDS011;52915;53.718;19.946;2022-12-18T22:29:49;93.30;;;30.40;;
65764;SDS011;52915;53.718;19.946;2022-12-18T22:40:20;172.30;;;46.30;;
65764;SDS011;52915;53.718;19.946;2022-12-18T22:45:31;375.00;;;93.10;;
65764;SDS011;52915;53.718;19.946;2022-12-18T22:50:39;185.00;;;51.00;;
65764;SDS011;52915;53.718;19.946;2022-12-18T22:55:43;79.30;;;27.00;;
65764;SDS011;52915;53.718;19.946;2022-12-18T23:00:47;139.20;;;44.60;;
65764;SDS011;52915;53.718;19.946;2022-12-18T23:05:50;81.80;;;28.70;;
65764;SDS011;52915;53.718;19.946;2022-12-18T23:10:56;133.40;;;36.50;;
65764;SDS011;52915;53.718;19.946;2022-12-18T23:16:04;88.00;;;28.60;;
65764;SDS011;52915;53.718;19.946;2022-12-18T23:21:16;119.40;;;38.40;;
65764;SDS011;52915;53.718;19.946;2022-12-18T23:26:23;37.10;;;12.00;;
65764;SDS011;52915;53.718;19.946;2022-12-18T23:31:32;106.10;;;31.10;;
65764;SDS011;52915;53.718;19.946;2022-12-18T23:36:38;47.10;;;18.00;;
65764;SDS011;52915;53.718;19.946;2022-12-18T23:41:48;59.00;;;20.20;;
65764;SDS011;52915;53.718;19.946;2022-12-18T23:46:51;72.90;;;25.20;;
65764;SDS011;52915;53.718;19.946;2022-12-18T23:51:55;18.20;;;10.70;;
65764;SDS011;52915;53.718;19.946;2022-12-18T23:57:00;69.70;;;23.40;;
